createdAt,value
2019-05-18T00:02:37.276Z,20.17
2019-05-18T00:05:18.785Z,21.70
2019-05-18T00:08:00.309Z,19.00
2019-05-18T00:10:41.636Z,20.68
2019-05-18T00:13:23.293Z,20.65
2019-05-18T00:16:03.063Z,18.17
2019-05-18T00:22:01.472Z,22.10
2019-05-18T00:30:54.875Z,18.77
2019-05-18T00:36:38.835Z,20.80
2019-05-18T00:39:41.602Z,19.75
2019-05-18T00:48:24.101Z,23.83
2019-05-18T01:00:07.363Z,31.45
2019-05-18T01:02:55.996Z,25.20
2019-05-18T01:05:58.754Z,22.07
2019-05-18T01:11:44.040Z,24.05
2019-05-18T01:17:28.369Z,22.95
2019-05-18T01:23:26.336Z,22.02
2019-05-18T01:26:02.784Z,24.40
2019-05-18T01:29:11.797Z,21.40
2019-05-18T01:37:51.611Z,24.82
2019-05-18T01:40:40.237Z,24.75
2019-05-18T01:46:38.039Z,25.55
2019-05-18T01:52:28.599Z,24.75
2019-05-18T01:55:10.122Z,25.82
2019-05-18T01:57:51.428Z,22.95
2019-05-18T02:00:32.837Z,22.77
2019-05-18T02:03:14.393Z,23.40
2019-05-18T02:05:55.869Z,26.52
2019-05-18T02:08:37.378Z,23.30
2019-05-18T02:11:18.919Z,23.60
2019-05-18T02:14:00.581Z,20.65
2019-05-18T02:16:41.295Z,23.55
2019-05-18T02:19:24.834Z,25.75
2019-05-18T02:22:06.152Z,24.77
2019-05-18T02:24:47.520Z,25.92
2019-05-18T02:27:29.135Z,25.82
2019-05-18T02:30:10.722Z,25.02
2019-05-18T02:32:52.145Z,24.12
2019-05-18T02:35:33.554Z,24.60
2019-05-18T02:38:18.608Z,26.80
2019-05-18T02:40:59.956Z,27.82
2019-05-18T02:43:41.441Z,24.57
2019-05-18T02:46:23.008Z,26.00
2019-05-18T02:49:04.502Z,29.98
2019-05-18T02:51:49.217Z,23.77
2019-05-18T02:54:30.231Z,26.15
2019-05-18T02:57:11.450Z,23.18
2019-05-18T02:59:52.892Z,25.43
2019-05-18T03:02:34.150Z,25.90
2019-05-18T03:05:15.307Z,26.15
2019-05-18T03:07:56.614Z,25.88
2019-05-18T03:10:38.087Z,26.52
2019-05-18T03:13:19.735Z,23.92
2019-05-18T03:16:01.102Z,25.77
2019-05-18T03:18:42.209Z,25.55
2019-05-18T03:21:23.504Z,24.90
2019-05-18T03:24:05.151Z,25.77
2019-05-18T03:26:46.161Z,23.70
2019-05-18T03:29:27.665Z,23.90
2019-05-18T03:32:08.972Z,26.37
2019-05-18T03:34:50.573Z,27.32
2019-05-18T03:37:31.923Z,22.25
2019-05-18T03:40:13.458Z,24.35
2019-05-18T03:42:54.890Z,24.55
2019-05-18T03:45:34.675Z,24.15
2019-05-18T03:48:35.019Z,24.35
2019-05-18T03:51:05.808Z,22.95
2019-05-18T03:53:47.323Z,23.30
2019-05-18T03:56:28.066Z,22.22
2019-05-18T03:59:09.355Z,23.92
2019-05-18T04:01:50.859Z,22.77
2019-05-18T04:04:31.951Z,24.60
2019-05-18T04:07:13.491Z,24.12
2019-05-18T04:09:54.966Z,26.65
2019-05-18T04:12:36.495Z,21.35
2019-05-18T04:15:17.776Z,25.35
2019-05-18T04:17:58.708Z,26.07
2019-05-18T04:20:40.247Z,25.00
2019-05-18T04:23:21.408Z,24.55
2019-05-18T04:26:02.541Z,23.83
2019-05-18T04:28:43.848Z,24.47
2019-05-18T04:31:25.319Z,22.60
2019-05-18T04:34:06.677Z,23.42
2019-05-18T04:36:46.385Z,22.90
2019-05-18T04:39:35.040Z,23.20
2019-05-18T04:42:23.715Z,22.50
2019-05-18T04:51:06.470Z,20.55
2019-05-18T04:59:59.685Z,21.20
2019-05-18T05:02:48.645Z,21.33
2019-05-18T05:05:37.369Z,20.27
2019-05-18T05:08:25.987Z,20.90
2019-05-18T05:11:14.622Z,22.70
2019-05-18T05:14:03.304Z,23.20
2019-05-18T05:17:07.617Z,19.82
2019-05-18T05:19:43.923Z,18.85
2019-05-18T05:22:46.649Z,20.92
2019-05-18T05:31:27.865Z,20.08
2019-05-18T05:34:30.645Z,19.02
2019-05-18T05:40:16.086Z,18.05
2019-05-18T05:43:16.564Z,19.98
2019-05-18T05:45:55.229Z,17.92
2019-05-18T05:48:43.876Z,16.62
2019-05-18T05:51:46.431Z,17.77
2019-05-18T05:54:15.560Z,18.23
2019-05-18T05:56:57.101Z,17.33
2019-05-18T05:59:38.440Z,19.57
2019-05-18T06:02:19.826Z,16.83
2019-05-18T06:05:01.248Z,18.17
2019-05-18T06:07:42.605Z,16.93
2019-05-18T06:10:23.398Z,16.83
2019-05-18T06:13:04.272Z,17.60
2019-05-18T06:15:45.789Z,17.03
2019-05-18T06:18:27.432Z,16.17
2019-05-18T06:21:09.071Z,16.33
2019-05-18T06:23:50.457Z,15.60
2019-05-18T06:26:31.940Z,14.63
2019-05-18T06:29:13.321Z,15.30
2019-05-18T06:31:54.851Z,13.43
2019-05-18T06:34:36.270Z,14.87
2019-05-18T06:37:17.938Z,12.80
2019-05-18T06:39:59.169Z,13.70
2019-05-18T06:42:40.086Z,12.20
2019-05-18T06:45:21.352Z,13.70
2019-05-18T06:48:01.482Z,13.00
2019-05-18T06:50:50.405Z,13.30
2019-05-18T06:53:31.626Z,14.57
2019-05-18T06:56:13.273Z,12.93
2019-05-18T06:58:54.785Z,13.60
2019-05-18T07:01:36.410Z,13.27
2019-05-18T07:04:17.821Z,12.37
2019-05-18T07:06:59.157Z,13.30
2019-05-18T07:09:40.461Z,12.30
2019-05-18T07:12:20.145Z,12.17
2019-05-18T07:21:22.447Z,8.40
2019-05-18T07:24:23.218Z,9.10
2019-05-18T07:26:59.416Z,9.53
2019-05-18T07:32:57.502Z,8.40
2019-05-18T07:35:33.669Z,8.83
2019-05-18T07:38:22.676Z,9.70
2019-05-18T07:41:12.945Z,9.20
2019-05-18T07:44:15.640Z,8.20
2019-05-18T07:47:03.609Z,10.37
2019-05-18T07:52:33.467Z,9.03
2019-05-18T07:55:15.169Z,8.97
2019-05-18T07:57:56.668Z,6.73
2019-05-18T08:00:38.286Z,9.50
2019-05-18T08:03:19.643Z,7.00
2019-05-18T08:06:01.182Z,6.93
2019-05-18T08:08:42.691Z,6.97
2019-05-18T08:11:24.207Z,6.90
2019-05-18T08:14:06.120Z,6.33
2019-05-18T08:16:47.232Z,7.70
2019-05-18T08:19:28.852Z,6.60
2019-05-18T08:22:10.323Z,6.70
2019-05-18T08:24:51.697Z,6.70
2019-05-18T08:27:32.606Z,7.13
2019-05-18T08:30:14.071Z,6.90
2019-05-18T08:32:55.272Z,5.93
2019-05-18T08:35:36.845Z,7.53
2019-05-18T08:38:18.443Z,5.70
2019-05-18T08:40:59.773Z,6.80
2019-05-18T08:43:40.606Z,6.57
2019-05-18T08:46:21.946Z,6.07
2019-05-18T08:49:03.163Z,6.23
2019-05-18T08:51:44.262Z,7.70
2019-05-18T08:54:25.809Z,5.73
2019-05-18T08:57:07.403Z,5.00
2019-05-18T08:59:49.335Z,4.80
2019-05-18T09:02:30.275Z,5.37
2019-05-18T09:05:10.986Z,4.73
2019-05-18T09:07:52.408Z,4.50
2019-05-18T09:10:33.685Z,5.57
2019-05-18T09:13:14.922Z,4.83
2019-05-18T09:15:55.975Z,5.20
2019-05-18T09:18:37.188Z,4.53
2019-05-18T09:21:18.488Z,4.50
2019-05-18T09:24:00.015Z,3.83
2019-05-18T09:26:41.293Z,4.20
2019-05-18T09:29:22.534Z,3.87
2019-05-18T09:32:04.099Z,3.87
2019-05-18T09:34:45.683Z,4.53
2019-05-18T09:37:27.125Z,4.00
2019-05-18T09:40:08.873Z,4.03
2019-05-18T09:42:50.336Z,4.63
2019-05-18T09:45:31.661Z,3.87
2019-05-18T09:48:13.239Z,4.37
2019-05-18T09:50:54.422Z,4.07
2019-05-18T09:53:35.548Z,4.90
2019-05-18T09:56:16.375Z,4.87
2019-05-18T09:58:58.247Z,4.70
2019-05-18T10:01:39.403Z,5.00
2019-05-18T10:04:20.967Z,4.77
2019-05-18T10:07:02.645Z,4.00
2019-05-18T10:09:43.959Z,3.93
2019-05-18T10:12:25.113Z,3.30
2019-05-18T10:15:06.725Z,4.10
2019-05-18T10:17:47.522Z,5.33
2019-05-18T10:20:30.003Z,4.00
2019-05-18T10:23:13.562Z,4.13
2019-05-18T10:25:54.447Z,4.13
2019-05-18T10:28:36.019Z,4.57
2019-05-18T10:31:17.345Z,4.10
2019-05-18T10:33:58.808Z,3.53
2019-05-18T10:36:38.705Z,3.37
2019-05-18T10:39:27.294Z,4.17
2019-05-18T10:42:27.917Z,3.60
2019-05-18T10:51:11.510Z,3.67
2019-05-18T10:53:52.693Z,2.97
2019-05-18T10:56:34.249Z,4.40
2019-05-18T10:59:15.880Z,3.70
2019-05-18T11:01:57.110Z,3.50
2019-05-18T11:04:38.541Z,5.03
2019-05-18T11:07:20.014Z,2.83
2019-05-18T11:10:01.620Z,3.37
2019-05-18T11:12:42.766Z,3.23
2019-05-18T11:15:24.527Z,3.03
2019-05-18T11:18:06.044Z,3.47
2019-05-18T11:20:47.549Z,3.70
2019-05-18T11:23:41.480Z,3.17
2019-05-18T11:26:11.366Z,3.60
2019-05-18T11:28:52.793Z,3.67
2019-05-18T11:31:34.015Z,4.33
2019-05-18T11:34:15.577Z,3.00
2019-05-18T11:36:57.090Z,2.93
2019-05-18T11:39:38.544Z,3.30
2019-05-18T11:42:20.601Z,3.70
2019-05-18T11:45:01.606Z,4.10
2019-05-18T11:47:42.371Z,3.27
2019-05-18T11:50:23.903Z,4.10
2019-05-18T11:53:04.720Z,4.13
2019-05-18T11:55:46.384Z,3.77
2019-05-18T11:58:27.872Z,3.70
2019-05-18T12:01:09.152Z,4.40
2019-05-18T12:03:49.952Z,3.60
2019-05-18T12:06:30.629Z,3.50
2019-05-18T12:09:11.411Z,3.33
2019-05-18T12:11:53.154Z,3.90
2019-05-18T12:14:34.054Z,5.57
2019-05-18T12:17:14.990Z,5.13
2019-05-18T12:19:56.516Z,3.70
2019-05-18T12:22:37.854Z,3.97
2019-05-18T12:25:17.967Z,3.70
2019-05-18T12:28:20.603Z,3.23
2019-05-18T12:30:57.082Z,3.73
2019-05-18T12:33:57.392Z,4.23
2019-05-18T12:36:35.944Z,3.10
2019-05-18T12:39:24.624Z,3.50
2019-05-18T12:42:13.784Z,3.00
2019-05-18T12:45:02.446Z,2.90
2019-05-18T12:48:05.124Z,3.73
2019-05-18T12:50:53.498Z,3.03
2019-05-18T12:53:25.078Z,4.10
2019-05-18T12:56:05.878Z,3.47
2019-05-18T12:58:47.496Z,3.23
2019-05-18T13:01:29.179Z,3.37
2019-05-18T13:04:10.646Z,3.60
2019-05-18T13:06:52.275Z,3.33
2019-05-18T13:09:33.056Z,3.63
2019-05-18T13:12:14.607Z,3.77
2019-05-18T13:14:56.060Z,3.03
2019-05-18T13:17:37.701Z,2.87
2019-05-18T13:20:19.084Z,3.10
2019-05-18T13:23:00.836Z,3.27
2019-05-18T13:25:41.660Z,3.90
2019-05-18T13:28:22.510Z,3.50
2019-05-18T13:31:03.904Z,3.00
2019-05-18T13:33:43.575Z,4.37
2019-05-18T13:36:46.208Z,3.60
2019-05-18T13:39:22.912Z,3.37
2019-05-18T13:42:11.665Z,3.30
2019-05-18T13:45:14.626Z,3.60
2019-05-18T13:48:04.685Z,3.00
2019-05-18T13:53:32.588Z,3.03
2019-05-18T13:56:14.087Z,2.77
2019-05-18T13:58:55.469Z,2.80
2019-05-18T14:01:36.760Z,2.87
2019-05-18T14:04:18.286Z,2.90
2019-05-18T14:06:59.813Z,5.37
2019-05-18T14:09:41.511Z,3.60
2019-05-18T14:12:22.546Z,2.80
2019-05-18T14:15:04.161Z,2.97
2019-05-18T14:17:45.570Z,2.97
2019-05-18T14:20:26.634Z,3.10
2019-05-18T14:23:07.544Z,3.97
2019-05-18T14:25:48.261Z,3.63
2019-05-18T14:28:29.519Z,5.10
2019-05-18T14:31:10.201Z,3.40
2019-05-18T14:33:51.848Z,3.17
2019-05-18T14:36:33.056Z,3.30
2019-05-18T14:39:14.656Z,3.37
2019-05-18T14:41:55.414Z,3.50
2019-05-18T14:44:36.231Z,3.73
2019-05-18T14:47:17.670Z,3.40
2019-05-18T14:49:59.340Z,3.50
2019-05-18T14:52:40.967Z,3.60
2019-05-18T14:55:33.213Z,3.40
2019-05-18T14:58:04.830Z,3.47
2019-05-18T15:00:46.556Z,3.30
2019-05-18T15:03:27.817Z,3.53
2019-05-18T15:06:09.127Z,4.23
2019-05-18T15:08:50.833Z,4.30
2019-05-18T15:11:32.311Z,4.03
2019-05-18T15:14:13.847Z,4.17
2019-05-18T15:16:55.213Z,3.20
2019-05-18T15:19:37.166Z,4.40
2019-05-18T15:22:18.122Z,4.30
2019-05-18T15:24:59.252Z,3.60
2019-05-18T15:27:40.744Z,4.40
2019-05-18T15:30:22.278Z,3.80
2019-05-18T15:33:03.811Z,3.80
2019-05-18T15:35:45.449Z,3.67
2019-05-18T15:38:26.783Z,3.23
2019-05-18T15:41:07.766Z,3.60
2019-05-18T15:43:47.483Z,4.20
2019-05-18T15:46:36.217Z,3.87
2019-05-18T15:52:26.785Z,5.00
2019-05-18T15:55:08.270Z,5.40
2019-05-18T15:57:49.762Z,4.57
2019-05-18T16:00:31.585Z,4.20
2019-05-18T16:03:12.951Z,3.90
2019-05-18T16:05:54.593Z,4.50
2019-05-18T16:08:36.158Z,4.47
2019-05-18T16:11:17.502Z,4.73
2019-05-18T16:13:59.018Z,4.43
2019-05-18T16:16:40.390Z,4.60
2019-05-18T16:19:21.993Z,4.17
2019-05-18T16:22:03.298Z,4.47
2019-05-18T16:24:44.855Z,4.97
2019-05-18T16:27:26.354Z,4.67
2019-05-18T16:30:07.735Z,4.67
2019-05-18T16:32:49.217Z,5.00
2019-05-18T16:35:30.522Z,5.90
2019-05-18T16:38:12.138Z,6.60
2019-05-18T16:40:53.636Z,4.93
2019-05-18T16:43:34.821Z,5.23
2019-05-18T16:46:16.395Z,4.17
2019-05-18T16:48:57.792Z,4.80
2019-05-18T16:51:38.641Z,6.10
2019-05-18T16:54:19.491Z,4.80
2019-05-18T16:57:00.938Z,4.57
2019-05-18T16:59:42.163Z,4.40
2019-05-18T17:02:31.771Z,4.37
2019-05-18T17:05:06.502Z,4.90
2019-05-18T17:07:47.890Z,7.27
2019-05-18T17:10:29.414Z,5.20
2019-05-18T17:13:10.899Z,4.33
2019-05-18T17:15:52.381Z,4.30
2019-05-18T17:18:33.865Z,4.63
2019-05-18T17:21:14.578Z,4.80
2019-05-18T17:23:56.081Z,5.30
2019-05-18T17:26:51.515Z,5.70
2019-05-18T17:29:19.007Z,4.43
2019-05-18T17:32:07.690Z,5.27
2019-05-18T17:38:03.938Z,4.90
2019-05-18T17:40:52.721Z,5.07
2019-05-18T17:43:52.886Z,6.00
2019-05-18T17:46:31.646Z,8.53
2019-05-18T17:49:26.707Z,5.03
2019-05-18T17:52:10.606Z,4.87
2019-05-18T17:54:52.363Z,4.90
2019-05-18T17:57:34.050Z,4.40
2019-05-18T18:00:14.808Z,4.77
2019-05-18T18:02:58.222Z,4.50
2019-05-18T18:05:39.523Z,5.10
2019-05-18T18:08:21.348Z,4.37
2019-05-18T18:11:02.771Z,5.00
2019-05-18T18:13:44.256Z,4.87
2019-05-18T18:16:25.230Z,4.27
2019-05-18T18:19:06.315Z,4.30
2019-05-18T18:21:47.393Z,5.10
2019-05-18T18:24:28.567Z,4.83
2019-05-18T18:27:24.148Z,4.60
2019-05-18T18:29:52.464Z,5.10
2019-05-18T18:32:33.920Z,5.13
2019-05-18T18:35:14.688Z,4.90
2019-05-18T18:37:55.978Z,5.53
2019-05-18T18:40:37.552Z,5.73
2019-05-18T18:43:20.478Z,6.40
2019-05-18T18:46:01.002Z,5.67
2019-05-18T18:48:41.926Z,5.90
2019-05-18T18:51:23.177Z,6.13
2019-05-18T18:54:04.053Z,6.20
2019-05-18T18:56:45.210Z,5.67
2019-05-18T18:59:26.665Z,5.30
2019-05-18T19:02:07.351Z,5.90
2019-05-18T19:04:48.880Z,5.93
2019-05-18T19:07:29.632Z,7.03
2019-05-18T19:10:10.910Z,5.50
2019-05-18T19:12:52.433Z,5.90
2019-05-18T19:15:34.060Z,6.30
2019-05-18T19:18:15.360Z,4.77
2019-05-18T19:20:55.377Z,5.77
2019-05-18T19:23:55.574Z,5.20
2019-05-18T19:26:34.338Z,5.43
2019-05-18T19:29:22.923Z,5.20
2019-05-18T19:32:11.686Z,5.90
2019-05-18T19:35:00.403Z,6.07
2019-05-18T19:37:49.223Z,5.50
2019-05-18T19:40:37.791Z,7.13
2019-05-18T19:43:26.430Z,6.07
2019-05-18T19:46:15.063Z,7.07
2019-05-18T19:49:15.715Z,7.00
2019-05-18T19:51:54.235Z,6.73
2019-05-18T19:54:35.385Z,6.20
2019-05-18T19:57:16.903Z,6.00
2019-05-18T19:59:58.175Z,7.10
2019-05-18T20:02:39.760Z,8.73
2019-05-18T20:05:20.606Z,8.90
2019-05-18T20:08:00.250Z,8.33
2019-05-18T20:10:48.886Z,7.60
2019-05-18T20:13:37.967Z,7.87
2019-05-18T20:16:40.702Z,8.90
2019-05-18T20:19:17.327Z,8.00
2019-05-18T20:22:06.091Z,6.27
2019-05-18T20:25:06.926Z,7.23
2019-05-18T20:27:59.661Z,8.80
2019-05-18T20:30:36.146Z,7.83
2019-05-18T20:36:33.970Z,7.10
2019-05-18T20:42:32.444Z,6.87
2019-05-18T20:45:21.092Z,7.13
2019-05-18T20:48:24.139Z,7.97
2019-05-18T20:51:00.243Z,7.37
2019-05-18T20:53:41.376Z,7.67
2019-05-18T20:56:22.194Z,7.63
2019-05-18T20:59:01.888Z,7.40
2019-05-18T21:01:50.596Z,9.23
2019-05-18T21:10:47.409Z,9.07
2019-05-18T21:16:44.442Z,9.57
2019-05-18T21:22:42.213Z,9.63
2019-05-18T21:25:42.473Z,9.07
2019-05-18T21:28:21.109Z,10.20
2019-05-18T21:31:09.766Z,9.00
2019-05-18T21:33:58.367Z,8.83
2019-05-18T21:36:47.016Z,9.77
2019-05-18T21:42:45.123Z,9.57
2019-05-18T21:45:46.292Z,8.43
2019-05-18T21:48:36.493Z,7.93
2019-05-18T21:54:17.190Z,9.47
2019-05-18T21:56:57.972Z,7.73
2019-05-18T21:59:39.314Z,6.50
2019-05-18T22:02:20.454Z,8.60
2019-05-18T22:05:01.953Z,7.77
2019-05-18T22:07:43.526Z,8.35
2019-05-18T22:10:26.167Z,7.60
2019-05-18T22:13:07.224Z,8.63
2019-05-18T22:15:48.564Z,8.68
2019-05-18T22:18:29.400Z,9.07
2019-05-18T22:21:10.866Z,8.33
2019-05-18T22:23:51.736Z,9.00
2019-05-18T22:26:33.141Z,11.53
2019-05-18T22:29:14.267Z,11.45
2019-05-18T22:31:55.631Z,11.20
2019-05-18T22:34:37.339Z,9.48
2019-05-18T22:37:18.769Z,9.30
2019-05-18T22:40:00.325Z,10.47
2019-05-18T22:42:41.560Z,9.78
2019-05-18T22:45:21.627Z,9.20
2019-05-18T22:51:04.735Z,9.40
2019-05-18T22:53:46.601Z,9.03
2019-05-18T22:56:34.804Z,10.30
2019-05-18T23:02:22.745Z,10.03
2019-05-18T23:08:17.899Z,10.03
2019-05-18T23:10:56.602Z,9.90
2019-05-18T23:13:56.944Z,11.65
2019-05-18T23:25:25.268Z,11.80
2019-05-18T23:40:34.281Z,13.60
2019-05-18T23:43:23.412Z,12.18
2019-05-18T23:46:12.198Z,12.82
2019-05-18T23:49:10.427Z,11.33
2019-05-18T23:51:52.135Z,11.33
2019-05-18T23:54:33.103Z,12.07
2019-05-18T23:57:14.358Z,12.58
2019-05-18T23:59:55.917Z,12.90
